createdAt,value
2018-09-27T00:00:43.344Z,56.40
2018-09-27T00:03:12.260Z,56.50
2018-09-27T00:05:41.283Z,56.50
2018-09-27T00:08:10.186Z,56.50
2018-09-27T00:10:39.060Z,56.50
2018-09-27T00:13:07.982Z,56.50
2018-09-27T00:15:36.914Z,56.50
2018-09-27T00:18:06.151Z,56.50
2018-09-27T00:20:35.109Z,56.50
2018-09-27T00:23:04.006Z,56.50
2018-09-27T00:25:32.921Z,56.50
2018-09-27T00:28:02.012Z,56.50
2018-09-27T00:30:30.914Z,56.40
2018-09-27T00:32:59.849Z,56.40
2018-09-27T00:35:28.774Z,56.30
2018-09-27T00:37:57.689Z,56.20
2018-09-27T00:40:26.819Z,56.10
2018-09-27T00:42:55.775Z,56.00
2018-09-27T00:45:24.686Z,56.00
2018-09-27T00:47:53.636Z,55.90
2018-09-27T00:50:22.548Z,55.80
2018-09-27T00:52:51.474Z,55.80
2018-09-27T00:55:20.394Z,55.80
2018-09-27T00:57:49.287Z,55.90
2018-09-27T01:00:18.174Z,56.00
2018-09-27T01:02:47.490Z,56.10
2018-09-27T01:05:16.391Z,56.10
2018-09-27T01:07:45.277Z,56.20
2018-09-27T01:10:14.162Z,56.20
2018-09-27T01:12:42.980Z,56.30
2018-09-27T01:15:11.859Z,56.30
2018-09-27T01:17:40.731Z,56.40
2018-09-27T01:20:09.734Z,56.40
2018-09-27T01:22:38.669Z,56.30
2018-09-27T01:25:08.149Z,56.20
2018-09-27T01:27:37.063Z,56.10
2018-09-27T01:30:06.315Z,56.10
2018-09-27T01:32:35.278Z,56.70
2018-09-27T01:35:04.195Z,56.00
2018-09-27T01:37:33.171Z,56.00
2018-09-27T01:40:02.227Z,56.00
2018-09-27T01:42:31.145Z,55.90
2018-09-27T01:45:00.054Z,55.80
2018-09-27T01:47:28.963Z,55.80
2018-09-27T01:49:57.876Z,55.70
2018-09-27T01:52:26.765Z,55.60
2018-09-27T01:54:56.587Z,55.50
2018-09-27T01:57:25.490Z,55.40
2018-09-27T01:59:54.411Z,55.30
2018-09-27T02:02:23.293Z,55.20
2018-09-27T02:04:52.297Z,55.10
2018-09-27T02:07:21.211Z,55.10
2018-09-27T02:09:50.154Z,55.10
2018-09-27T02:12:19.206Z,55.10
2018-09-27T02:14:48.128Z,55.00
2018-09-27T02:17:17.047Z,55.00
2018-09-27T02:19:45.944Z,55.00
2018-09-27T02:22:14.969Z,55.10
2018-09-27T02:24:44.064Z,55.30
2018-09-27T02:27:12.970Z,55.30
2018-09-27T02:29:41.982Z,55.50
2018-09-27T02:32:10.882Z,55.60
2018-09-27T02:34:39.791Z,55.60
2018-09-27T02:37:08.688Z,55.70
2018-09-27T02:39:37.632Z,55.70
2018-09-27T02:42:06.548Z,55.70
2018-09-27T02:44:35.428Z,55.70
2018-09-27T02:47:04.347Z,55.60
2018-09-27T02:49:33.300Z,55.60
2018-09-27T02:52:02.234Z,55.40
2018-09-27T02:54:31.126Z,56.00
2018-09-27T02:57:00.056Z,55.40
2018-09-27T02:59:28.967Z,55.40
2018-09-27T03:01:57.892Z,55.40
2018-09-27T03:04:26.849Z,55.40
2018-09-27T03:06:55.778Z,55.50
2018-09-27T03:09:24.672Z,55.60
2018-09-27T03:11:53.597Z,55.70
2018-09-27T03:14:22.444Z,55.80
2018-09-27T03:16:51.369Z,56.00
2018-09-27T03:19:20.304Z,56.00
2018-09-27T03:21:49.233Z,56.10
2018-09-27T03:24:18.129Z,56.00
2018-09-27T03:26:47.023Z,55.90
2018-09-27T03:29:15.957Z,55.70
2018-09-27T03:31:44.861Z,55.60
2018-09-27T03:34:13.760Z,55.40
2018-09-27T03:36:42.683Z,55.30
2018-09-27T03:39:11.558Z,55.10
2018-09-27T03:41:40.454Z,55.00
2018-09-27T03:44:09.421Z,55.00
2018-09-27T03:46:38.389Z,54.90
2018-09-27T03:49:07.288Z,54.80
2018-09-27T03:51:36.165Z,54.80
2018-09-27T03:54:05.093Z,54.80
2018-09-27T03:56:33.980Z,54.70
2018-09-27T03:59:03.594Z,54.70
2018-09-27T04:01:32.489Z,55.30
2018-09-27T04:04:01.413Z,54.70
2018-09-27T04:06:30.466Z,54.70
2018-09-27T04:08:59.355Z,54.80
2018-09-27T04:11:28.278Z,54.80
2018-09-27T04:13:57.318Z,54.80
2018-09-27T04:16:26.255Z,54.80
2018-09-27T04:18:55.354Z,54.90
2018-09-27T04:21:24.317Z,54.90
2018-09-27T04:23:53.846Z,54.90
2018-09-27T04:26:22.899Z,54.90
2018-09-27T04:28:51.825Z,55.00
2018-09-27T04:31:20.731Z,55.00
2018-09-27T04:33:49.703Z,55.00
2018-09-27T04:36:18.858Z,55.00
2018-09-27T04:38:47.972Z,55.70
2018-09-27T04:41:16.912Z,55.10
2018-09-27T04:43:45.809Z,55.10
2018-09-27T04:46:14.731Z,55.10
2018-09-27T04:48:43.698Z,55.20
2018-09-27T04:51:12.570Z,55.30
2018-09-27T04:53:41.474Z,55.30
2018-09-27T04:56:10.398Z,55.40
2018-09-27T04:58:39.826Z,55.40
2018-09-27T05:01:09.368Z,55.40
2018-09-27T05:03:38.840Z,55.40
2018-09-27T05:06:07.913Z,55.50
2018-09-27T05:08:36.896Z,55.50
2018-09-27T05:11:05.829Z,55.50
2018-09-27T05:13:34.795Z,55.60
2018-09-27T05:16:03.961Z,55.60
2018-09-27T05:18:33.101Z,55.60
2018-09-27T05:21:02.033Z,55.60
2018-09-27T05:23:31.037Z,55.60
2018-09-27T05:25:59.955Z,55.70
2018-09-27T05:28:28.865Z,55.70
2018-09-27T05:30:57.807Z,55.80
2018-09-27T05:33:26.803Z,55.90
2018-09-27T05:35:55.945Z,56.10
2018-09-27T05:38:24.865Z,56.30
2018-09-27T05:40:53.827Z,56.50
2018-09-27T05:43:22.756Z,56.60
2018-09-27T05:45:51.665Z,56.80
2018-09-27T05:48:20.595Z,56.90
2018-09-27T05:50:49.515Z,57.00
2018-09-27T05:53:18.486Z,57.20
2018-09-27T05:55:47.391Z,57.30
2018-09-27T05:58:16.490Z,57.40
2018-09-27T06:00:45.425Z,57.60
2018-09-27T06:03:14.376Z,57.60
2018-09-27T06:05:43.289Z,57.70
2018-09-27T06:08:12.204Z,57.70
2018-09-27T06:10:41.151Z,57.80
2018-09-27T06:13:10.088Z,57.80
2018-09-27T06:15:39.047Z,57.80
2018-09-27T06:18:08.114Z,57.90
2018-09-27T06:20:37.052Z,57.80
2018-09-27T06:23:06.390Z,57.70
2018-09-27T06:25:35.416Z,57.50
2018-09-27T06:28:04.358Z,57.10
2018-09-27T06:30:33.375Z,56.90
2018-09-27T06:33:02.336Z,56.60
2018-09-27T06:35:31.262Z,56.40
2018-09-27T06:38:00.216Z,56.40
2018-09-27T06:40:29.163Z,56.30
2018-09-27T06:42:58.270Z,56.30
2018-09-27T06:45:27.398Z,56.50
2018-09-27T06:47:56.326Z,56.50
2018-09-27T06:50:25.379Z,56.40
2018-09-27T06:52:54.464Z,56.50
2018-09-27T06:55:23.540Z,56.50
2018-09-27T06:57:52.582Z,56.40
2018-09-27T07:00:21.510Z,56.30
2018-09-27T07:02:50.430Z,56.40
2018-09-27T07:05:19.436Z,56.20
2018-09-27T07:07:48.751Z,56.00
2018-09-27T07:10:17.674Z,55.80
2018-09-27T07:12:46.600Z,55.70
2018-09-27T07:15:15.680Z,55.60
2018-09-27T07:17:44.597Z,55.60
2018-09-27T07:20:13.543Z,55.40
2018-09-27T07:22:42.650Z,55.40
2018-09-27T07:25:11.551Z,55.30
2018-09-27T07:27:40.642Z,55.30
2018-09-27T07:30:09.576Z,55.20
2018-09-27T07:32:38.596Z,55.20
2018-09-27T07:35:07.667Z,55.20
2018-09-27T07:37:36.558Z,55.20
2018-09-27T07:40:05.915Z,55.10
2018-09-27T07:42:34.826Z,55.10
2018-09-27T07:45:03.979Z,55.00
2018-09-27T07:47:32.909Z,55.10
2018-09-27T07:50:01.865Z,55.00
2018-09-27T07:52:30.785Z,54.90
2018-09-27T07:54:59.700Z,54.90
2018-09-27T07:57:28.960Z,54.80
2018-09-27T08:00:00.796Z,54.80
2018-09-27T08:02:29.956Z,54.80
2018-09-27T08:04:59.549Z,54.70
2018-09-27T08:07:28.456Z,54.90
2018-09-27T08:09:57.389Z,55.00
2018-09-27T08:12:26.316Z,55.40
2018-09-27T08:14:55.244Z,55.70
2018-09-27T08:17:24.242Z,56.60
2018-09-27T08:19:53.295Z,57.00
2018-09-27T08:22:22.217Z,57.20
2018-09-27T08:24:51.549Z,57.70
2018-09-27T08:27:20.483Z,58.10
2018-09-27T08:29:49.394Z,58.20
2018-09-27T08:32:18.380Z,58.60
2018-09-27T08:34:47.309Z,59.00
2018-09-27T08:37:16.288Z,59.20
2018-09-27T08:39:45.234Z,59.00
2018-09-27T08:42:14.185Z,59.40
2018-09-27T08:44:43.215Z,59.10
2018-09-27T08:47:12.274Z,59.60
2018-09-27T08:49:41.198Z,59.40
2018-09-27T08:52:11.214Z,59.70
2018-09-27T08:54:40.175Z,59.70
2018-09-27T08:57:09.102Z,59.80
2018-09-27T08:59:38.067Z,59.90
2018-09-27T09:02:07.371Z,60.00
2018-09-27T09:04:36.402Z,60.00
2018-09-27T09:07:05.586Z,60.80
2018-09-27T09:09:34.534Z,60.70
2018-09-27T09:12:04.042Z,60.90
2018-09-27T09:14:33.158Z,61.00
2018-09-27T09:17:02.089Z,61.40
2018-09-27T09:19:31.054Z,61.80
2018-09-27T09:22:00.195Z,62.00
2018-09-27T09:24:29.184Z,61.90
2018-09-27T09:26:58.289Z,62.40
2018-09-27T09:29:27.308Z,63.50
2018-09-27T09:31:56.362Z,63.30
2018-09-27T09:34:25.311Z,63.00
2018-09-27T09:36:54.269Z,63.50
2018-09-27T09:39:23.194Z,63.70
2018-09-27T09:41:52.516Z,63.60
2018-09-27T09:44:21.458Z,64.90
2018-09-27T09:46:51.086Z,64.00
2018-09-27T09:49:20.009Z,64.10
2018-09-27T09:51:48.999Z,63.40
2018-09-27T09:54:17.985Z,63.20
2018-09-27T09:56:46.905Z,63.30
2018-09-27T09:59:15.840Z,63.30
2018-09-27T10:01:45.385Z,63.10
2018-09-27T10:04:14.341Z,63.00
2018-09-27T10:06:43.433Z,62.90
2018-09-27T10:09:12.474Z,62.90
2018-09-27T10:11:41.402Z,62.50
2018-09-27T10:14:10.321Z,62.50
2018-09-27T10:16:39.254Z,63.40
2018-09-27T10:19:08.210Z,63.70
2018-09-27T10:21:37.175Z,63.60
2018-09-27T10:24:06.288Z,64.00
2018-09-27T10:26:35.219Z,64.50
2018-09-27T10:29:04.202Z,64.00
2018-09-27T10:31:33.114Z,64.30
2018-09-27T10:34:02.058Z,64.10
2018-09-27T10:36:30.999Z,63.50
2018-09-27T10:38:59.941Z,63.10
2018-09-27T10:41:28.878Z,63.00
2018-09-27T10:43:57.779Z,62.80
2018-09-27T10:46:26.686Z,62.80
2018-09-27T10:48:55.594Z,62.90
2018-09-27T10:51:24.939Z,62.60
2018-09-27T10:53:53.973Z,62.80
2018-09-27T10:56:23.238Z,62.70
2018-09-27T10:58:52.230Z,63.00
2018-09-27T11:01:21.262Z,62.70
2018-09-27T11:03:50.207Z,62.50
2018-09-27T11:06:19.145Z,62.60
2018-09-27T11:08:48.062Z,62.60
2018-09-27T11:11:17.048Z,62.80
2018-09-27T11:13:46.268Z,63.00
2018-09-27T11:16:15.198Z,63.20
2018-09-27T11:18:44.182Z,63.10
2018-09-27T11:21:13.136Z,63.10
2018-09-27T11:23:42.026Z,63.50
2018-09-27T11:26:11.051Z,63.60
2018-09-27T11:28:45.286Z,63.80
2018-09-27T11:31:19.539Z,64.00
2018-09-27T11:33:48.493Z,64.10
2018-09-27T11:36:17.442Z,64.10
2018-09-27T11:38:46.713Z,64.50
2018-09-27T11:41:15.663Z,64.50
2018-09-27T11:43:44.578Z,64.50
2018-09-27T11:46:13.549Z,64.70
2018-09-27T11:48:42.492Z,64.60
2018-09-27T11:51:11.407Z,64.70
2018-09-27T11:53:40.379Z,64.20
2018-09-27T11:56:09.398Z,64.10
2018-09-27T11:58:38.411Z,64.10
2018-09-27T12:01:07.584Z,63.90
2018-09-27T12:03:36.533Z,63.90
2018-09-27T12:06:05.670Z,63.90
2018-09-27T12:08:34.571Z,63.90
2018-09-27T12:11:03.506Z,63.80
2018-09-27T12:13:32.508Z,64.00
2018-09-27T12:16:01.532Z,64.00
2018-09-27T12:18:30.500Z,63.80
2018-09-27T12:20:59.596Z,63.70
2018-09-27T12:23:28.524Z,63.70
2018-09-27T12:25:57.497Z,63.60
2018-09-27T12:28:26.464Z,63.50
2018-09-27T12:30:55.612Z,63.10
2018-09-27T12:33:24.739Z,63.40
2018-09-27T12:35:53.736Z,63.10
2018-09-27T12:38:22.659Z,63.00
2018-09-27T12:40:51.768Z,63.10
2018-09-27T12:43:20.723Z,63.00
2018-09-27T12:45:49.839Z,63.20
2018-09-27T12:48:18.963Z,63.00
2018-09-27T12:50:47.998Z,63.00
2018-09-27T12:53:16.969Z,62.80
2018-09-27T12:55:46.018Z,62.60
2018-09-27T12:58:14.937Z,62.60
2018-09-27T13:00:43.922Z,62.40
2018-09-27T13:03:12.844Z,62.20
2018-09-27T13:05:41.766Z,62.00
2018-09-27T13:08:10.702Z,62.60
2018-09-27T13:10:39.676Z,61.50
2018-09-27T13:13:08.772Z,61.40
2018-09-27T13:15:37.473Z,60.90
2018-09-27T13:18:06.414Z,60.60
2018-09-27T13:20:35.105Z,60.40
2018-09-27T13:23:03.934Z,60.00
2018-09-27T13:25:33.035Z,59.70
2018-09-27T13:28:02.227Z,59.60
2018-09-27T13:30:31.192Z,59.50
2018-09-27T13:32:59.883Z,59.40
2018-09-27T13:35:28.659Z,59.30
2018-09-27T13:37:57.889Z,59.20
2018-09-27T13:40:26.576Z,59.00
2018-09-27T13:42:55.220Z,58.90
2018-09-27T13:45:24.365Z,58.70
2018-09-27T13:47:52.983Z,58.40
2018-09-27T13:50:21.661Z,58.30
2018-09-27T13:52:50.339Z,58.20
2018-09-27T13:55:19.007Z,58.00
2018-09-27T13:57:47.669Z,57.90
2018-09-27T14:00:16.293Z,57.70
2018-09-27T14:02:44.968Z,57.50
2018-09-27T14:05:13.633Z,57.30
2018-09-27T14:07:42.609Z,57.10
2018-09-27T14:10:11.266Z,57.00
2018-09-27T14:12:39.962Z,57.00
2018-09-27T14:15:08.789Z,56.90
2018-09-27T14:17:37.421Z,56.90
2018-09-27T14:20:07.043Z,56.70
2018-09-27T14:22:35.707Z,56.70
2018-09-27T14:25:04.839Z,56.60
2018-09-27T14:27:33.511Z,56.00
2018-09-27T14:30:02.229Z,56.30
2018-09-27T14:32:30.884Z,56.10
2018-09-27T14:34:59.504Z,55.60
2018-09-27T14:37:28.232Z,55.40
2018-09-27T14:39:56.859Z,55.10
2018-09-27T14:42:25.596Z,54.40
2018-09-27T14:44:54.446Z,53.90
2018-09-27T14:47:23.100Z,53.80
2018-09-27T14:49:51.734Z,53.50
2018-09-27T14:52:20.383Z,52.70
2018-09-27T14:54:49.059Z,52.10
2018-09-27T14:57:17.859Z,52.10
2018-09-27T14:59:46.524Z,51.20
2018-09-27T15:02:15.261Z,51.10
2018-09-27T15:04:44.078Z,50.50
2018-09-27T15:07:12.835Z,50.70
2018-09-27T15:09:41.751Z,50.30
2018-09-27T15:12:10.585Z,50.40
2018-09-27T15:14:39.682Z,50.30
2018-09-27T15:17:08.433Z,50.10
2018-09-27T15:19:37.042Z,50.00
2018-09-27T15:22:06.060Z,49.70
2018-09-27T15:24:34.715Z,49.60
2018-09-27T15:27:03.726Z,49.40
2018-09-27T15:29:32.371Z,49.00
2018-09-27T15:32:01.025Z,49.00
2018-09-27T15:34:29.678Z,49.00
2018-09-27T15:36:58.327Z,49.20
2018-09-27T15:39:26.987Z,49.40
2018-09-27T15:41:55.652Z,49.60
2018-09-27T15:44:24.277Z,49.80
2018-09-27T15:46:52.904Z,50.20
2018-09-27T15:49:21.902Z,50.50
2018-09-27T15:51:50.530Z,50.70
2018-09-27T15:54:19.250Z,51.20
2018-09-27T15:56:47.888Z,51.70
2018-09-27T15:59:16.480Z,52.00
2018-09-27T16:01:45.126Z,52.30
2018-09-27T16:04:13.877Z,52.60
2018-09-27T16:06:42.730Z,53.00
2018-09-27T16:09:12.130Z,53.40
2018-09-27T16:11:41.581Z,53.60
2018-09-27T16:14:10.416Z,54.00
2018-09-27T16:16:41.148Z,54.30
2018-09-27T16:19:09.865Z,54.60
2018-09-27T16:21:38.548Z,54.80
2018-09-27T16:24:07.240Z,55.00
2018-09-27T16:26:35.904Z,55.30
2018-09-27T16:29:04.893Z,55.60
2018-09-27T16:31:33.529Z,55.90
2018-09-27T16:34:02.155Z,56.70
2018-09-27T16:36:30.806Z,56.40
2018-09-27T16:38:59.469Z,56.80
2018-09-27T16:41:28.233Z,57.10
2018-09-27T16:43:57.385Z,57.40
2018-09-27T16:46:26.028Z,57.70
2018-09-27T16:48:55.014Z,58.10
2018-09-27T16:51:24.105Z,58.50
2018-09-27T16:53:52.726Z,58.70
2018-09-27T16:56:21.624Z,59.00
2018-09-27T16:58:50.553Z,59.40
2018-09-27T17:01:19.490Z,59.80
2018-09-27T17:03:48.485Z,60.20
2018-09-27T17:06:17.406Z,60.60
2018-09-27T17:08:46.352Z,61.00
2018-09-27T17:11:15.388Z,61.50
2018-09-27T17:13:44.460Z,62.00
2018-09-27T17:16:13.419Z,62.60
2018-09-27T17:18:42.533Z,63.00
2018-09-27T17:21:11.635Z,63.30
2018-09-27T17:23:40.600Z,63.60
2018-09-27T17:26:10.081Z,63.90
2018-09-27T17:28:39.032Z,64.40
2018-09-27T17:31:08.459Z,64.80
2018-09-27T17:33:37.367Z,65.20
2018-09-27T17:36:06.359Z,65.50
2018-09-27T17:38:35.255Z,65.90
2018-09-27T17:41:04.194Z,66.30
2018-09-27T17:43:33.236Z,66.60
2018-09-27T17:46:02.455Z,67.00
2018-09-27T17:48:31.539Z,67.40
2018-09-27T17:51:00.485Z,67.60
2018-09-27T17:53:29.625Z,68.00
2018-09-27T17:55:58.520Z,68.40
2018-09-27T17:58:27.624Z,68.70
2018-09-27T18:00:56.691Z,68.90
2018-09-27T18:03:25.625Z,70.00
2018-09-27T18:05:54.537Z,69.50
2018-09-27T18:08:23.461Z,69.70
2018-09-27T18:10:52.395Z,70.00
2018-09-27T18:13:21.289Z,70.40
2018-09-27T18:15:50.289Z,70.70
2018-09-27T18:18:19.562Z,71.00
2018-09-27T18:20:48.491Z,71.20
2018-09-27T18:23:17.449Z,71.50
2018-09-27T18:25:46.442Z,71.80
2018-09-27T18:28:15.528Z,72.00
2018-09-27T18:30:44.461Z,72.40
2018-09-27T18:33:13.433Z,72.60
2018-09-27T18:35:42.369Z,72.90
2018-09-27T18:38:11.571Z,73.20
2018-09-27T18:40:40.474Z,73.50
2018-09-27T18:43:09.480Z,73.80
2018-09-27T18:45:38.590Z,74.10
2018-09-27T18:48:07.756Z,74.40
2018-09-27T18:50:36.714Z,74.70
2018-09-27T18:53:05.672Z,74.90
2018-09-27T18:55:34.613Z,75.40
2018-09-27T18:58:03.582Z,75.60
2018-09-27T19:00:32.530Z,75.90
2018-09-27T19:03:01.454Z,76.10
2018-09-27T19:05:30.394Z,76.50
2018-09-27T19:07:59.352Z,76.80
2018-09-27T19:10:28.280Z,77.00
2018-09-27T19:12:57.222Z,77.30
2018-09-27T19:15:26.164Z,77.60
2018-09-27T19:17:55.068Z,78.00
2018-09-27T19:20:23.985Z,78.20
2018-09-27T19:22:52.958Z,78.50
2018-09-27T19:25:21.912Z,78.50
2018-09-27T19:27:50.861Z,78.40
2018-09-27T19:30:19.778Z,78.20
2018-09-27T19:32:48.685Z,78.00
2018-09-27T19:35:17.696Z,77.60
2018-09-27T19:37:46.652Z,77.10
2018-09-27T19:40:15.561Z,76.90
2018-09-27T19:42:44.465Z,76.70
2018-09-27T19:45:13.399Z,76.60
2018-09-27T19:47:42.337Z,76.50
2018-09-27T19:50:11.317Z,76.40
2018-09-27T19:52:41.285Z,76.30
2018-09-27T19:55:10.221Z,76.20
2018-09-27T19:57:39.147Z,76.10
2018-09-27T20:00:08.123Z,75.90
2018-09-27T20:02:37.069Z,75.80
2018-09-27T20:05:06.255Z,75.80
2018-09-27T20:07:35.196Z,75.80
2018-09-27T20:10:04.346Z,75.80
2018-09-27T20:12:33.423Z,75.80
2018-09-27T20:15:02.333Z,76.00
2018-09-27T20:17:31.216Z,76.20
2018-09-27T20:20:00.220Z,76.50
2018-09-27T20:22:29.155Z,76.50
2018-09-27T20:24:58.271Z,76.50
2018-09-27T20:27:27.201Z,76.30
2018-09-27T20:29:56.136Z,76.10
2018-09-27T20:32:25.009Z,75.60
2018-09-27T20:34:53.991Z,75.20
2018-09-27T20:37:23.101Z,74.60
2018-09-27T20:39:52.351Z,74.10
2018-09-27T20:42:21.337Z,74.00
2018-09-27T20:44:50.246Z,73.40
2018-09-27T20:47:19.162Z,72.80
2018-09-27T20:49:48.121Z,72.40
2018-09-27T20:52:17.024Z,72.00
2018-09-27T20:54:45.951Z,71.60
2018-09-27T20:57:14.854Z,71.30
2018-09-27T20:59:43.823Z,71.10
2018-09-27T21:02:12.796Z,71.00
2018-09-27T21:04:41.733Z,70.90
2018-09-27T21:07:10.681Z,70.70
2018-09-27T21:09:39.585Z,70.70
2018-09-27T21:12:08.506Z,70.70
2018-09-27T21:14:37.424Z,70.60
2018-09-27T21:17:06.396Z,70.40
2018-09-27T21:19:35.302Z,70.50
2018-09-27T21:22:04.219Z,70.50
2018-09-27T21:24:33.470Z,70.70
2018-09-27T21:27:02.374Z,70.60
2018-09-27T21:29:31.281Z,70.60
2018-09-27T21:32:00.190Z,70.50
2018-09-27T21:34:29.104Z,70.50
2018-09-27T21:36:58.008Z,70.50
2018-09-27T21:39:26.936Z,70.40
2018-09-27T21:41:56.832Z,70.40
2018-09-27T21:44:25.744Z,70.40
2018-09-27T21:46:54.640Z,70.40
2018-09-27T21:49:23.662Z,70.40
2018-09-27T21:51:52.593Z,70.40
2018-09-27T21:54:21.523Z,70.40
2018-09-27T21:56:50.422Z,70.40
2018-09-27T21:59:19.498Z,70.40
2018-09-27T22:01:48.419Z,70.40
2018-09-27T22:04:17.318Z,70.30
2018-09-27T22:06:46.812Z,70.30
2018-09-27T22:09:15.727Z,70.20
2018-09-27T22:11:44.602Z,70.20
2018-09-27T22:14:13.513Z,70.00
2018-09-27T22:16:42.475Z,70.00
2018-09-27T22:19:11.390Z,70.00
2018-09-27T22:21:40.325Z,70.00
2018-09-27T22:24:09.209Z,70.00
2018-09-27T22:26:38.242Z,70.00
2018-09-27T22:29:07.139Z,70.00
2018-09-27T22:31:36.086Z,69.90
2018-09-27T22:34:05.034Z,69.90
2018-09-27T22:36:33.973Z,69.80
2018-09-27T22:39:03.241Z,69.70
2018-09-27T22:41:32.150Z,69.60
2018-09-27T22:44:01.175Z,69.60
2018-09-27T22:46:30.128Z,69.70
2018-09-27T22:48:58.998Z,69.80
2018-09-27T22:51:27.947Z,69.90
2018-09-27T22:53:56.874Z,70.00
2018-09-27T22:56:25.821Z,70.20
2018-09-27T22:58:54.771Z,70.30
2018-09-27T23:01:23.663Z,70.40
2018-09-27T23:03:52.567Z,70.50
2018-09-27T23:06:21.834Z,70.50
2018-09-27T23:08:50.711Z,70.50
2018-09-27T23:11:19.662Z,70.50
2018-09-27T23:13:48.558Z,70.50
2018-09-27T23:16:17.473Z,70.40
2018-09-27T23:18:46.390Z,70.40
2018-09-27T23:21:15.328Z,70.30
2018-09-27T23:23:44.232Z,70.30
2018-09-27T23:26:13.136Z,70.50
2018-09-27T23:28:42.018Z,70.50
2018-09-27T23:31:10.914Z,70.60
2018-09-27T23:33:39.793Z,70.60
2018-09-27T23:36:08.714Z,70.70
2018-09-27T23:38:37.633Z,70.80
2018-09-27T23:41:06.570Z,70.90
2018-09-27T23:43:35.478Z,71.00
2018-09-27T23:46:04.374Z,71.10
2018-09-27T23:48:33.262Z,71.20
2018-09-27T23:51:02.195Z,71.30
2018-09-27T23:53:31.115Z,71.30
2018-09-27T23:56:00.018Z,71.50
2018-09-27T23:58:28.908Z,71.30
